createdAt,value
2023-10-11T00:00:30.460Z,99658.34
2023-10-11T00:01:32.107Z,99660.19
2023-10-11T00:02:33.726Z,99656.91
2023-10-11T00:03:35.652Z,99651.59
2023-10-11T00:04:37.556Z,99664.09
2023-10-11T00:05:42.224Z,99661.22
2023-10-11T00:06:43.871Z,99657.53
2023-10-11T00:07:45.570Z,99661.94
2023-10-11T00:08:47.265Z,99657.91
2023-10-11T00:09:53.139Z,99668.56
2023-10-11T00:10:56.750Z,99661.22
2023-10-11T00:11:58.478Z,99661.22
2023-10-11T00:13:00.134Z,99659.19
2023-10-11T00:14:01.821Z,99656.75
2023-10-11T00:15:03.668Z,99659.19
2023-10-11T00:16:10.136Z,99659.19
2023-10-11T00:17:11.909Z,99658.84
2023-10-11T00:18:13.606Z,99653.34
2023-10-11T00:19:17.268Z,99659.91
2023-10-11T00:20:29.519Z,99664.84
2023-10-11T00:21:41.939Z,99662.19
2023-10-11T00:22:43.718Z,99664.63
2023-10-11T00:23:52.097Z,99648.34
2023-10-11T00:24:53.918Z,99648.34
2023-10-11T00:26:00.206Z,99667.34
2023-10-11T00:27:01.890Z,99669.59
2023-10-11T00:28:03.754Z,99666.13
2023-10-11T00:29:05.805Z,99659.16
2023-10-11T00:30:07.934Z,99658.56
2023-10-11T00:31:20.411Z,99664.94
2023-10-11T00:32:23.234Z,99660.22
2023-10-11T00:33:38.200Z,99661.84
2023-10-11T00:34:40.356Z,99657.56
2023-10-11T00:35:49.320Z,99666.56
2023-10-11T00:36:51.118Z,99650.47
2023-10-11T00:37:54.237Z,99662.28
2023-10-11T00:38:55.935Z,99658.44
2023-10-11T00:39:57.599Z,99668.06
2023-10-11T00:41:13.994Z,99662.97
2023-10-11T00:42:15.662Z,99652.63
2023-10-11T00:43:22.679Z,99622.31
2023-10-11T00:44:24.300Z,99671.84
2023-10-11T00:45:31.985Z,99669.59
2023-10-11T00:46:51.536Z,99659.38
2023-10-11T00:47:57.116Z,99653.47
2023-10-11T00:49:06.378Z,99633.56
2023-10-11T00:50:15.633Z,99667.44
2023-10-11T00:51:18.088Z,99660.50
2023-10-11T00:52:22.338Z,99672.13
2023-10-11T00:53:27.894Z,99680.72
2023-10-11T00:54:30.126Z,99669.53
2023-10-11T00:55:32.494Z,99672.34
2023-10-11T00:56:34.797Z,99682.97
2023-10-11T00:57:38.027Z,99679.28
2023-10-11T00:58:39.642Z,99670.09
2023-10-11T00:59:41.853Z,99675.06
2023-10-11T01:00:43.517Z,99681.19
2023-10-11T01:01:46.496Z,99683.84
2023-10-11T01:02:53.824Z,99689.56
2023-10-11T01:03:56.521Z,99678.75
2023-10-11T01:04:59.756Z,99688.56
2023-10-11T01:06:01.762Z,99688.38
2023-10-11T01:07:03.406Z,99696.94
2023-10-11T01:08:05.390Z,99693.88
2023-10-11T01:09:22.889Z,99694.31
2023-10-11T01:10:25.222Z,99697.00
2023-10-11T01:11:27.850Z,99691.06
2023-10-11T01:12:29.606Z,99688.63
2023-10-11T01:13:32.370Z,99693.28
2023-10-11T01:14:46.299Z,99697.19
2023-10-11T01:15:48.896Z,99697.19
2023-10-11T01:16:53.134Z,99691.44
2023-10-11T01:17:55.390Z,99697.41
2023-10-11T01:18:57.141Z,99697.59
2023-10-11T01:20:00.972Z,99680.06
2023-10-11T01:21:06.930Z,99707.81
2023-10-11T01:22:10.339Z,99700.25
2023-10-11T01:23:11.895Z,99707.59
2023-10-11T01:24:16.068Z,99703.31
2023-10-11T01:25:20.089Z,99708.19
2023-10-11T01:26:22.888Z,99714.72
2023-10-11T01:27:31.211Z,99716.16
2023-10-11T01:28:32.949Z,99711.88
2023-10-11T01:29:34.561Z,99716.97
2023-10-11T01:30:36.184Z,99716.38
2023-10-11T01:31:39.244Z,99723.78
2023-10-11T01:32:44.678Z,99725.81
2023-10-11T01:33:51.028Z,99726.81
2023-10-11T01:34:53.140Z,99724.78
2023-10-11T01:35:54.830Z,99727.25
2023-10-11T01:36:56.659Z,99719.25
2023-10-11T01:37:58.502Z,99731.28
2023-10-11T01:39:09.745Z,99726.81
2023-10-11T01:40:14.477Z,99727.22
2023-10-11T01:41:27.920Z,99727.63
2023-10-11T01:42:29.503Z,99728.66
2023-10-11T01:43:31.503Z,99731.97
2023-10-11T01:44:35.177Z,99736.06
2023-10-11T01:45:40.700Z,99748.94
2023-10-11T01:46:42.960Z,99744.47
2023-10-11T01:47:58.065Z,99741.41
2023-10-11T01:49:00.039Z,99740.38
2023-10-11T01:50:01.715Z,99743.63
2023-10-11T01:51:09.171Z,99753.63
2023-10-11T01:52:13.510Z,99752.25
2023-10-11T01:53:15.788Z,99746.72
2023-10-11T01:54:17.466Z,99742.44
2023-10-11T01:55:19.153Z,99750.19
2023-10-11T01:56:24.968Z,99756.50
2023-10-11T01:57:26.612Z,99745.88
2023-10-11T01:58:28.275Z,99749.72
2023-10-11T01:59:30.175Z,99751.78
2023-10-11T02:00:36.240Z,99751.78
2023-10-11T02:01:41.507Z,99754.66
2023-10-11T02:02:57.592Z,99746.69
2023-10-11T02:04:01.553Z,99763.03
2023-10-11T02:05:06.336Z,99759.16
2023-10-11T02:06:08.632Z,99762.41
2023-10-11T02:07:10.492Z,99752.19
2023-10-11T02:08:13.436Z,99761.41
2023-10-11T02:09:15.101Z,99764.06
2023-10-11T02:10:26.562Z,99768.34
2023-10-11T02:11:30.888Z,99770.19
2023-10-11T02:12:32.626Z,99775.50
2023-10-11T02:13:35.047Z,99772.88
2023-10-11T02:14:38.592Z,99772.88
2023-10-11T02:15:41.515Z,99777.16
2023-10-11T02:16:43.168Z,99773.06
2023-10-11T02:17:48.534Z,99768.81
2023-10-11T02:18:59.834Z,99749.41
2023-10-11T02:20:02.304Z,99769.81
2023-10-11T02:21:10.092Z,99774.91
2023-10-11T02:22:12.464Z,99779.41
2023-10-11T02:23:14.145Z,99777.38
2023-10-11T02:24:16.471Z,99780.84
2023-10-11T02:25:25.779Z,99781.66
2023-10-11T02:26:35.759Z,99767.75
2023-10-11T02:27:37.736Z,99780.59
2023-10-11T02:28:42.924Z,99775.31
2023-10-11T02:29:45.995Z,99759.63
2023-10-11T02:30:48.089Z,99788.59
2023-10-11T02:31:54.122Z,99789.03
2023-10-11T02:33:00.276Z,99789.44
2023-10-11T02:34:14.719Z,99800.69
2023-10-11T02:35:19.348Z,99802.94
2023-10-11T02:36:21.072Z,99803.75
2023-10-11T02:37:24.398Z,99803.53
2023-10-11T02:38:27.077Z,99802.09
2023-10-11T02:39:35.707Z,99801.50
2023-10-11T02:40:39.262Z,99804.56
2023-10-11T02:41:41.689Z,99793.13
2023-10-11T02:42:50.556Z,99795.38
2023-10-11T02:43:53.847Z,99791.91
2023-10-11T02:44:55.467Z,99797.63
2023-10-11T02:46:00.673Z,99794.34
2023-10-11T02:47:02.412Z,99790.69
2023-10-11T02:48:11.518Z,99807.41
2023-10-11T02:49:22.593Z,99803.94
2023-10-11T02:50:25.143Z,99802.09
2023-10-11T02:51:26.781Z,99806.19
2023-10-11T02:52:31.333Z,99810.69
2023-10-11T02:53:37.435Z,99807.63
2023-10-11T02:54:43.117Z,99789.06
2023-10-11T02:55:44.977Z,99807.22
2023-10-11T02:56:49.779Z,99799.88
2023-10-11T02:58:11.652Z,99810.50
2023-10-11T02:59:20.481Z,99804.38
2023-10-11T03:00:24.965Z,99811.09
2023-10-11T03:01:32.426Z,99813.97
2023-10-11T03:02:39.968Z,99816.00
2023-10-11T03:03:43.270Z,99809.88
2023-10-11T03:04:45.077Z,99807.84
2023-10-11T03:05:46.759Z,99809.09
2023-10-11T03:06:50.761Z,99811.13
2023-10-11T03:07:52.944Z,99813.56
2023-10-11T03:08:54.759Z,99818.88
2023-10-11T03:09:56.989Z,99807.63
2023-10-11T03:10:58.868Z,99819.28
2023-10-11T03:12:08.245Z,99814.38
2023-10-11T03:13:10.042Z,99814.38
2023-10-11T03:14:13.632Z,99815.00
2023-10-11T03:15:20.690Z,99813.16
2023-10-11T03:16:24.977Z,99820.94
2023-10-11T03:17:26.618Z,99824.78
2023-10-11T03:18:38.233Z,99822.97
2023-10-11T03:19:43.437Z,99822.16
2023-10-11T03:20:45.814Z,99820.50
2023-10-11T03:21:48.208Z,99823.78
2023-10-11T03:22:52.482Z,99821.72
2023-10-11T03:23:56.983Z,99825.81
2023-10-11T03:25:02.150Z,99825.59
2023-10-11T03:26:09.699Z,99826.03
2023-10-11T03:27:11.638Z,99825.22
2023-10-11T03:28:16.335Z,99828.06
2023-10-11T03:29:22.679Z,99828.47
2023-10-11T03:30:25.875Z,99825.41
2023-10-11T03:31:29.667Z,99824.59
2023-10-11T03:32:31.568Z,99817.66
2023-10-11T03:33:33.589Z,99825.59
2023-10-11T03:34:35.348Z,99822.97
2023-10-11T03:35:39.742Z,99822.16
2023-10-11T03:36:52.467Z,99829.91
2023-10-11T03:37:59.755Z,99833.56
2023-10-11T03:39:11.056Z,99829.91
2023-10-11T03:40:28.612Z,99831.94
2023-10-11T03:41:30.287Z,99831.34
2023-10-11T03:42:54.775Z,99831.13
2023-10-11T03:44:01.955Z,99836.41
2023-10-11T03:45:07.434Z,99839.69
2023-10-11T03:46:16.561Z,99831.53
2023-10-11T03:47:26.051Z,99838.25
2023-10-11T03:48:29.614Z,99831.13
2023-10-11T03:49:31.591Z,99838.25
2023-10-11T03:50:36.042Z,99831.94
2023-10-11T03:51:37.738Z,99836.22
2023-10-11T03:52:41.427Z,99831.94
2023-10-11T03:53:43.067Z,99835.59
2023-10-11T03:54:46.406Z,99834.59
2023-10-11T03:55:48.873Z,99832.94
2023-10-11T03:56:55.412Z,99826.63
2023-10-11T03:57:57.075Z,99832.38
2023-10-11T03:59:01.595Z,99831.53
2023-10-11T04:00:23.729Z,99832.97
2023-10-11T04:01:25.856Z,99826.63
2023-10-11T04:02:27.841Z,99832.38
2023-10-11T04:03:29.621Z,99823.38
2023-10-11T04:04:31.789Z,99824.19
2023-10-11T04:05:37.131Z,99823.59
2023-10-11T04:06:38.943Z,99834.59
2023-10-11T04:07:41.296Z,99831.13
2023-10-11T04:09:03.790Z,99830.72
2023-10-11T04:10:10.939Z,99828.47
2023-10-11T04:11:19.943Z,99828.06
2023-10-11T04:12:25.962Z,99832.38
2023-10-11T04:13:27.677Z,99830.09
2023-10-11T04:14:41.649Z,99832.75
2023-10-11T04:15:43.761Z,99828.69
2023-10-11T04:16:46.216Z,99836.66
2023-10-11T04:17:50.655Z,99837.25
2023-10-11T04:18:54.919Z,99839.91
2023-10-11T04:20:16.509Z,99843.38
2023-10-11T04:21:27.453Z,99836.44
2023-10-11T04:22:32.637Z,99839.72
2023-10-11T04:23:36.989Z,99833.78
2023-10-11T04:24:40.085Z,99839.88
2023-10-11T04:25:44.737Z,99842.16
2023-10-11T04:27:16.401Z,99843.78
2023-10-11T04:28:17.855Z,99848.69
2023-10-11T04:29:19.973Z,99842.75
2023-10-11T04:30:28.614Z,99845.84
2023-10-11T04:31:33.938Z,99845.63
2023-10-11T04:32:47.099Z,99841.94
2023-10-11T04:33:52.280Z,99836.03
2023-10-11T04:34:56.966Z,99836.25
2023-10-11T04:35:59.283Z,99845.19
2023-10-11T04:37:06.261Z,99837.88
2023-10-11T04:38:08.052Z,99843.78
2023-10-11T04:39:17.338Z,99846.66
2023-10-11T04:40:39.806Z,99844.38
2023-10-11T04:41:50.451Z,99837.84
2023-10-11T04:43:05.824Z,99843.75
2023-10-11T04:44:14.591Z,99846.41
2023-10-11T04:45:24.377Z,99848.66
2023-10-11T04:46:32.087Z,99841.53
2023-10-11T04:47:52.562Z,99845.16
2023-10-11T04:49:04.397Z,99841.50
2023-10-11T04:50:12.755Z,99849.06
2023-10-11T04:51:25.130Z,99843.72
2023-10-11T04:52:36.505Z,99853.94
2023-10-11T04:53:57.425Z,99849.03
2023-10-11T04:54:59.056Z,99843.72
2023-10-11T04:56:00.632Z,99846.19
2023-10-11T04:57:08.300Z,99850.88
2023-10-11T04:58:09.968Z,99841.88
2023-10-11T04:59:31.593Z,99853.53
2023-10-11T05:00:45.267Z,99851.69
2023-10-11T05:01:47.230Z,99858.41
2023-10-11T05:02:55.886Z,99860.84
2023-10-11T05:04:00.713Z,99859.63
2023-10-11T05:05:06.437Z,99859.63
2023-10-11T05:06:15.543Z,99858.59
2023-10-11T05:07:21.186Z,99863.06
2023-10-11T05:08:25.586Z,99861.63
2023-10-11T05:09:53.117Z,99859.78
2023-10-11T05:10:56.329Z,99860.75
2023-10-11T05:12:07.184Z,99854.25
2023-10-11T05:13:14.465Z,99858.28
2023-10-11T05:14:31.592Z,99872.19
2023-10-11T05:15:44.064Z,99871.78
2023-10-11T05:16:46.373Z,99874.00
2023-10-11T05:18:00.565Z,99871.34
2023-10-11T05:19:06.668Z,99884.22
2023-10-11T05:20:09.953Z,99874.00
2023-10-11T05:21:16.062Z,99878.50
2023-10-11T05:22:29.745Z,99886.06
2023-10-11T05:23:53.895Z,99888.72
2023-10-11T05:25:02.389Z,99891.16
2023-10-11T05:26:23.944Z,99878.69
2023-10-11T05:27:45.843Z,99889.28
2023-10-11T05:29:00.309Z,99891.72
2023-10-11T05:30:13.394Z,99900.31
2023-10-11T05:31:15.166Z,99893.78
2023-10-11T05:32:24.816Z,99900.75
2023-10-11T05:33:42.969Z,99902.38
2023-10-11T05:34:52.074Z,99903.59
2023-10-11T05:36:12.308Z,99904.16
2023-10-11T05:37:32.089Z,99903.34
2023-10-11T05:38:51.967Z,99906.84
2023-10-11T05:40:11.885Z,99916.44
2023-10-11T05:41:34.010Z,99915.84
2023-10-11T05:43:10.674Z,99913.84
2023-10-11T05:44:31.031Z,99917.53
2023-10-11T05:45:51.007Z,99914.88
2023-10-11T05:47:10.943Z,99921.44
2023-10-11T05:48:30.975Z,99929.00
2023-10-11T05:49:51.843Z,99917.97
2023-10-11T05:50:56.709Z,99924.47
2023-10-11T05:51:58.862Z,99904.06
2023-10-11T05:53:00.443Z,99932.25
2023-10-11T05:54:06.680Z,99927.59
2023-10-11T05:55:08.855Z,99934.97
2023-10-11T05:56:10.512Z,99939.88
2023-10-11T05:57:15.075Z,99934.16
2023-10-11T05:58:17.137Z,99938.03
2023-10-11T05:59:18.888Z,99934.56
2023-10-11T06:00:27.442Z,99935.94
2023-10-11T06:01:29.145Z,99952.28
2023-10-11T06:02:30.836Z,99944.69
2023-10-11T06:03:36.610Z,99933.03
2023-10-11T06:04:40.802Z,99944.06
2023-10-11T06:05:42.611Z,99924.44
2023-10-11T06:06:47.076Z,99935.25
2023-10-11T06:08:01.903Z,99917.53
2023-10-11T06:09:06.540Z,99946.38
2023-10-11T06:10:09.777Z,99941.47
2023-10-11T06:11:13.940Z,99950.66
2023-10-11T06:12:24.776Z,99940.84
2023-10-11T06:13:26.674Z,99948.00
2023-10-11T06:14:28.276Z,99934.75
2023-10-11T06:15:35.997Z,99913.72
2023-10-11T06:16:40.816Z,99948.28
2023-10-11T06:17:50.438Z,99948.88
2023-10-11T06:18:58.542Z,99943.72
2023-10-11T06:20:18.530Z,99950.06
2023-10-11T06:21:25.478Z,99950.00
2023-10-11T06:22:29.904Z,99935.06
2023-10-11T06:23:31.966Z,99951.22
2023-10-11T06:24:38.310Z,99956.75
2023-10-11T06:25:51.894Z,99941.66
2023-10-11T06:26:53.934Z,99945.75
2023-10-11T06:27:58.155Z,99950.41
2023-10-11T06:29:08.620Z,99948.56
2023-10-11T06:30:11.606Z,99953.44
2023-10-11T06:31:15.821Z,99949.50
2023-10-11T06:32:21.525Z,99948.06
2023-10-11T06:33:24.021Z,99956.53
2023-10-11T06:34:25.650Z,99914.81
2023-10-11T06:35:27.268Z,99950.28
2023-10-11T06:36:31.323Z,99952.47
2023-10-11T06:37:36.305Z,99941.97
2023-10-11T06:38:42.777Z,99961.34
2023-10-11T06:39:44.918Z,99942.44
2023-10-11T06:41:09.574Z,99942.81
2023-10-11T06:42:24.801Z,99951.94
2023-10-11T06:43:27.292Z,99945.78
2023-10-11T06:44:28.984Z,99945.34
2023-10-11T06:45:30.720Z,99950.59
2023-10-11T06:46:32.408Z,99949.34
2023-10-11T06:47:37.370Z,99946.63
2023-10-11T06:48:39.493Z,99955.44
2023-10-11T06:50:53.766Z,99952.34
2023-10-11T06:51:55.462Z,99955.31
2023-10-11T06:52:57.044Z,99939.78
2023-10-11T06:53:58.723Z,99947.53
2023-10-11T06:55:15.504Z,99956.44
2023-10-11T06:56:18.364Z,99958.22
2023-10-11T06:57:22.660Z,99962.41
2023-10-11T06:58:24.531Z,99958.69
2023-10-11T06:59:29.215Z,99965.19
2023-10-11T07:00:38.276Z,99963.94
2023-10-11T07:01:42.535Z,99960.22
2023-10-11T07:02:49.038Z,99966.06
2023-10-11T07:03:53.530Z,99964.38
2023-10-11T07:04:55.226Z,99967.78
2023-10-11T07:06:01.793Z,99968.16
2023-10-11T07:07:08.566Z,99967.50
2023-10-11T07:08:11.377Z,99973.88
2023-10-11T07:09:22.119Z,99967.28
2023-10-11T07:10:30.057Z,99962.78
2023-10-11T07:11:51.693Z,99963.13
2023-10-11T07:13:06.553Z,99965.34
2023-10-11T07:14:15.718Z,99963.78
2023-10-11T07:15:17.381Z,99967.41
2023-10-11T07:16:29.483Z,99964.88
2023-10-11T07:17:33.446Z,99961.53
2023-10-11T07:18:41.152Z,99963.97
2023-10-11T07:19:42.891Z,99964.34
2023-10-11T07:20:50.813Z,99962.25
2023-10-11T07:21:55.352Z,99962.63
2023-10-11T07:22:58.195Z,99956.72
2023-10-11T07:24:06.054Z,99964.94
2023-10-11T07:25:27.944Z,99960.84
2023-10-11T07:26:32.774Z,99969.94
2023-10-11T07:27:41.363Z,99963.47
2023-10-11T07:28:42.966Z,99963.72
2023-10-11T07:29:50.590Z,99972.94
2023-10-11T07:30:52.733Z,99967.88
2023-10-11T07:31:54.621Z,99968.47
2023-10-11T07:32:56.445Z,99963.28
2023-10-11T07:33:58.666Z,99971.88
2023-10-11T07:35:06.771Z,99967.25
2023-10-11T07:36:13.221Z,99972.50
2023-10-11T07:37:19.261Z,99970.75
2023-10-11T07:38:22.316Z,99979.34
2023-10-11T07:39:35.029Z,99978.41
2023-10-11T07:40:47.173Z,99979.16
2023-10-11T07:41:53.513Z,99972.53
2023-10-11T07:42:56.287Z,99973.44
2023-10-11T07:44:01.809Z,99979.28
2023-10-11T07:45:08.931Z,99982.78
2023-10-11T07:46:10.706Z,99976.72
2023-10-11T07:47:19.823Z,99977.53
2023-10-11T07:48:21.737Z,99982.81
2023-10-11T07:49:26.629Z,99976.97
2023-10-11T07:50:28.214Z,99980.94
2023-10-11T07:51:31.325Z,99979.09
2023-10-11T07:52:35.088Z,99981.63
2023-10-11T07:53:44.479Z,99988.97
2023-10-11T07:54:46.505Z,99984.19
2023-10-11T07:55:48.081Z,99979.31
2023-10-11T07:56:53.947Z,99982.09
2023-10-11T07:58:01.317Z,99985.13
2023-10-11T07:59:13.456Z,99985.47
2023-10-11T08:00:19.596Z,99982.09
2023-10-11T08:01:31.737Z,99981.28
2023-10-11T08:02:43.128Z,99985.13
2023-10-11T08:03:47.616Z,99989.78
2023-10-11T08:04:52.097Z,99991.97
2023-10-11T08:05:55.327Z,99986.38
2023-10-11T08:07:06.599Z,99991.50
2023-10-11T08:08:11.365Z,99990.22
2023-10-11T08:09:24.927Z,99993.72
2023-10-11T08:10:35.729Z,99996.03
2023-10-11T08:11:46.777Z,99992.09
2023-10-11T08:12:48.416Z,99998.84
2023-10-11T08:13:50.705Z,99991.16
2023-10-11T08:14:55.107Z,99993.50
2023-10-11T08:15:59.558Z,99995.34
2023-10-11T08:17:01.433Z,99991.16
2023-10-11T08:18:03.081Z,99998.63
2023-10-11T08:19:06.106Z,99988.22
2023-10-11T08:20:10.678Z,99998.47
2023-10-11T08:21:14.184Z,99998.81
2023-10-11T08:22:17.203Z,99997.78
2023-10-11T08:23:30.918Z,99996.00
2023-10-11T08:24:41.413Z,99997.16
2023-10-11T08:25:50.431Z,99996.94
2023-10-11T08:26:53.801Z,99993.69
2023-10-11T08:28:13.383Z,99986.69
2023-10-11T08:29:33.711Z,99996.47
2023-10-11T08:30:40.126Z,99994.69
2023-10-11T08:31:44.930Z,99978.78
2023-10-11T08:32:49.434Z,99989.47
2023-10-11T08:33:51.253Z,99991.66
2023-10-11T08:34:55.599Z,99983.88
2023-10-11T08:35:57.915Z,99984.28
2023-10-11T08:37:02.175Z,99991.97
2023-10-11T08:38:06.037Z,99990.81
2023-10-11T08:39:09.990Z,99984.41
2023-10-11T08:40:21.884Z,99989.00
2023-10-11T08:41:24.048Z,99982.03
2023-10-11T08:42:32.193Z,99999.25
2023-10-11T08:43:37.877Z,99999.59
2023-10-11T08:44:45.657Z,99995.72
2023-10-11T08:46:00.204Z,99997.44
2023-10-11T08:47:07.522Z,100003.47
2023-10-11T08:48:09.861Z,99996.56
2023-10-11T08:49:11.798Z,100001.78
2023-10-11T08:50:19.233Z,99999.34
2023-10-11T08:51:23.793Z,99994.47
2023-10-11T08:52:31.996Z,99991.78
2023-10-11T08:53:36.175Z,99991.97
2023-10-11T08:54:39.663Z,99997.97
2023-10-11T08:55:41.947Z,99994.31
2023-10-11T08:56:55.917Z,99997.50
2023-10-11T08:57:57.954Z,99996.91
2023-10-11T08:59:05.557Z,99994.31
2023-10-11T09:00:19.594Z,99989.19
2023-10-11T09:01:27.445Z,99994.31
2023-10-11T09:02:30.754Z,99987.16
2023-10-11T09:03:41.493Z,99988.19
2023-10-11T09:05:22.218Z,99992.41
2023-10-11T09:06:24.417Z,99990.47
2023-10-11T09:07:40.858Z,99994.81
2023-10-11T09:08:42.416Z,99989.88
2023-10-11T09:09:46.298Z,100001.22
2023-10-11T09:10:50.650Z,99996.72
2023-10-11T09:11:55.641Z,100003.56
2023-10-11T09:12:59.095Z,99999.88
2023-10-11T09:14:24.086Z,99995.56
2023-10-11T09:15:44.034Z,99992.59
2023-10-11T09:16:45.887Z,99993.03
2023-10-11T09:17:51.895Z,99992.38
2023-10-11T09:19:12.526Z,99994.31
2023-10-11T09:20:17.134Z,99993.31
2023-10-11T09:21:19.547Z,99990.06
2023-10-11T09:22:22.640Z,99990.47
2023-10-11T09:23:37.625Z,99998.56
2023-10-11T09:24:44.694Z,100001.66
2023-10-11T09:25:59.371Z,99994.25
2023-10-11T09:27:19.430Z,100002.03
2023-10-11T09:28:23.359Z,100005.38
2023-10-11T09:29:26.414Z,100002.34
2023-10-11T09:30:28.495Z,99998.28
2023-10-11T09:31:32.946Z,99992.09
2023-10-11T09:32:35.324Z,99998.72
2023-10-11T09:34:07.608Z,100002.78
2023-10-11T09:35:27.806Z,99991.72
2023-10-11T09:36:29.918Z,99997.19
2023-10-11T09:37:35.617Z,99996.69
2023-10-11T09:38:40.373Z,99998.06
2023-10-11T09:39:43.644Z,99997.31
2023-10-11T09:40:45.281Z,99983.56
2023-10-11T09:41:53.759Z,99984.16
2023-10-11T09:43:03.362Z,99982.53
2023-10-11T09:44:05.381Z,99986.53
2023-10-11T09:45:08.307Z,99977.06
2023-10-11T09:46:12.861Z,99982.66
2023-10-11T09:47:18.711Z,99974.44
2023-10-11T09:48:23.549Z,99985.19
2023-10-11T09:49:27.315Z,99982.66
2023-10-11T09:50:30.423Z,99977.50
2023-10-11T09:51:33.070Z,99979.59
2023-10-11T09:52:35.549Z,99976.34
2023-10-11T09:53:43.319Z,99978.53
2023-10-11T09:54:46.758Z,99979.09
2023-10-11T09:56:02.593Z,99975.31
2023-10-11T09:57:22.516Z,99975.88
2023-10-11T09:58:42.664Z,99976.84
2023-10-11T10:00:09.738Z,99973.22
2023-10-11T10:01:22.319Z,99968.28
2023-10-11T10:02:30.307Z,99979.75
2023-10-11T10:03:32.672Z,99972.28
2023-10-11T10:05:05.939Z,99966.75
2023-10-11T10:06:20.379Z,99975.25
2023-10-11T10:07:40.926Z,99962.44
2023-10-11T10:08:49.060Z,99966.13
2023-10-11T10:09:58.052Z,99954.69
2023-10-11T10:11:03.380Z,99951.28
2023-10-11T10:12:07.619Z,99958.47
2023-10-11T10:13:11.002Z,99952.19
2023-10-11T10:14:25.496Z,99946.84
2023-10-11T10:15:35.166Z,99938.56
2023-10-11T10:17:12.369Z,99952.41
2023-10-11T10:18:20.999Z,99933.22
2023-10-11T10:19:26.293Z,99932.06
2023-10-11T10:20:34.496Z,99936.13
2023-10-11T10:22:16.112Z,99925.00
2023-10-11T10:23:17.586Z,99933.13
2023-10-11T10:24:31.445Z,99930.28
2023-10-11T10:25:33.157Z,99933.19
2023-10-11T10:26:39.626Z,99930.03
2023-10-11T10:27:42.525Z,99915.97
2023-10-11T10:28:46.996Z,99928.06
2023-10-11T10:29:56.900Z,99918.78
2023-10-11T10:31:26.307Z,99920.47
2023-10-11T10:32:28.568Z,99922.56
2023-10-11T10:33:30.434Z,99917.41
2023-10-11T10:34:32.117Z,99912.94
2023-10-11T10:35:39.363Z,99914.34
2023-10-11T10:36:42.246Z,99907.38
2023-10-11T10:37:58.022Z,99904.38
2023-10-11T10:38:59.986Z,99914.56
2023-10-11T10:40:28.110Z,99912.72
2023-10-11T10:41:34.711Z,99901.72
2023-10-11T10:42:36.768Z,99905.28
2023-10-11T10:43:40.853Z,99902.72
2023-10-11T10:44:53.362Z,99895.47
2023-10-11T10:46:04.249Z,99907.22
2023-10-11T10:47:07.270Z,99901.47
2023-10-11T10:48:15.490Z,99903.91
2023-10-11T10:49:21.127Z,99898.91
2023-10-11T10:50:22.970Z,99897.00
2023-10-11T10:51:31.497Z,99901.22
2023-10-11T10:52:33.227Z,99899.59
2023-10-11T10:53:38.498Z,99897.81
2023-10-11T10:54:40.113Z,99899.81
2023-10-11T10:55:45.827Z,99899.81
2023-10-11T10:56:59.119Z,99897.69
2023-10-11T10:58:00.695Z,99900.63
2023-10-11T10:59:12.828Z,99904.66
2023-10-11T11:00:24.833Z,99900.28
2023-10-11T11:01:29.630Z,99896.78
2023-10-11T11:02:37.225Z,99893.44
2023-10-11T11:03:42.972Z,99889.63
2023-10-11T11:04:45.269Z,99897.56
2023-10-11T11:06:01.179Z,99892.50
2023-10-11T11:07:04.954Z,99885.31
2023-10-11T11:08:25.078Z,99881.91
2023-10-11T11:09:27.354Z,99883.03
2023-10-11T11:10:32.207Z,99879.13
2023-10-11T11:11:36.548Z,99880.06
2023-10-11T11:12:42.187Z,99876.31
2023-10-11T11:13:44.254Z,99883.09
2023-10-11T11:14:55.790Z,99893.78
2023-10-11T11:15:58.018Z,99882.53
2023-10-11T11:17:01.651Z,99883.31
2023-10-11T11:18:03.806Z,99886.34
2023-10-11T11:19:20.294Z,99876.66
2023-10-11T11:20:30.768Z,99871.25
2023-10-11T11:21:32.468Z,99869.47
2023-10-11T11:22:41.149Z,99863.34
2023-10-11T11:23:45.490Z,99874.41
2023-10-11T11:24:53.736Z,99863.44
2023-10-11T11:25:55.542Z,99868.97
2023-10-11T11:26:57.506Z,99869.22
2023-10-11T11:28:06.361Z,99868.69
2023-10-11T11:29:18.171Z,99874.13
2023-10-11T11:30:35.000Z,99876.91
2023-10-11T11:31:53.789Z,99871.59
2023-10-11T11:32:55.975Z,99861.09
2023-10-11T11:34:14.492Z,99874.78
2023-10-11T11:35:32.605Z,99858.63
2023-10-11T11:36:36.269Z,99864.00
2023-10-11T11:38:02.738Z,99857.53
2023-10-11T11:39:27.847Z,99858.38
2023-10-11T11:40:37.986Z,99851.41
2023-10-11T11:41:40.602Z,99859.72
2023-10-11T11:42:49.777Z,99850.00
2023-10-11T11:43:51.521Z,99853.47
2023-10-11T11:44:56.700Z,99852.66
2023-10-11T11:46:03.061Z,99853.72
2023-10-11T11:47:07.626Z,99852.63
2023-10-11T11:48:09.451Z,99847.78
2023-10-11T11:49:11.051Z,99856.91
2023-10-11T11:50:19.562Z,99852.59
2023-10-11T11:51:21.165Z,99847.22
2023-10-11T11:52:23.405Z,99847.22
2023-10-11T11:53:25.737Z,99844.78
2023-10-11T11:54:29.852Z,99834.84
2023-10-11T11:55:33.668Z,99839.69
2023-10-11T11:56:35.542Z,99841.84
2023-10-11T11:57:37.298Z,99842.06
2023-10-11T11:58:47.717Z,99849.88
2023-10-11T11:59:49.290Z,99840.94
2023-10-11T12:01:09.535Z,99853.09
2023-10-11T12:02:18.364Z,99842.22
2023-10-11T12:03:26.787Z,99831.94
2023-10-11T12:04:34.003Z,99836.91
2023-10-11T12:05:42.269Z,99850.31
2023-10-11T12:06:44.128Z,99847.81
2023-10-11T12:07:45.819Z,99844.63
2023-10-11T12:08:47.480Z,99840.78
2023-10-11T12:10:02.415Z,99846.47
2023-10-11T12:11:06.425Z,99842.69
2023-10-11T12:12:08.313Z,99842.31
2023-10-11T12:13:10.548Z,99842.78
2023-10-11T12:14:14.090Z,99836.00
2023-10-11T12:15:17.967Z,99844.28
2023-10-11T12:16:23.948Z,99828.59
2023-10-11T12:17:27.011Z,99829.84
2023-10-11T12:18:34.878Z,99834.91
2023-10-11T12:19:38.130Z,99830.50
2023-10-11T12:20:39.776Z,99830.97
2023-10-11T12:21:41.403Z,99832.63
2023-10-11T12:22:46.396Z,99825.91
2023-10-11T12:23:48.827Z,99830.47
2023-10-11T12:24:50.777Z,99824.66
2023-10-11T12:25:52.739Z,99824.34
2023-10-11T12:27:02.062Z,99818.31
2023-10-11T12:28:05.590Z,99829.41
2023-10-11T12:29:10.144Z,99822.13
2023-10-11T12:30:21.537Z,99820.03
2023-10-11T12:31:23.370Z,99811.50
2023-10-11T12:32:32.562Z,99817.34
2023-10-11T12:33:34.522Z,99815.63
2023-10-11T12:34:36.216Z,99817.59
2023-10-11T12:35:41.393Z,99818.34
2023-10-11T12:36:43.723Z,99811.50
2023-10-11T12:37:45.477Z,99810.16
2023-10-11T12:38:50.349Z,99812.31
2023-10-11T12:39:55.007Z,99809.34
2023-10-11T12:40:56.666Z,99786.88
2023-10-11T12:42:00.718Z,99803.84
2023-10-11T12:43:08.813Z,99798.28
2023-10-11T12:44:15.397Z,99802.59
2023-10-11T12:45:18.644Z,99796.97
2023-10-11T12:46:21.384Z,99802.34
2023-10-11T12:47:23.373Z,99797.47
2023-10-11T12:48:26.128Z,99801.28
2023-10-11T12:49:29.125Z,99802.03
2023-10-11T12:50:31.433Z,99789.31
2023-10-11T12:51:34.704Z,99788.50
2023-10-11T12:52:39.443Z,99796.53
2023-10-11T12:53:41.125Z,99783.06
2023-10-11T12:54:43.030Z,99780.63
2023-10-11T12:55:46.773Z,99784.69
2023-10-11T12:56:48.486Z,99785.13
2023-10-11T12:57:50.154Z,99780.34
2023-10-11T12:58:54.168Z,99788.50
2023-10-11T12:59:55.889Z,99783.38
2023-10-11T13:01:00.635Z,99777.41
2023-10-11T13:02:05.296Z,99783.59
2023-10-11T13:03:27.742Z,99782.69
2023-10-11T13:04:32.522Z,99776.19